Time;durP1;ratioP1;P1;durP2;ratioP2;P2;SDS_P1;SDS_P2;PMS_P1;PMS_P2;Temp;Humidity;BMP_temperature;BMP_pressure;BME280_temperature;BME280_humidity;BME280_pressure;Samples;Min_cycle;Max_cycle;Signal;HPM_P1;HPM_P2
2023/04/30 00:00:01;;;;;;;18.40;10.93;;;8.30;99.90;;;;;;4999901;28;88438;-76
2023/04/30 00:02:36;;;;;;;13.55;10.77;;;8.30;99.90;;;;;;4980686;28;88977;-76
2023/04/30 00:05:03;;;;;;;15.48;9.88;;;8.30;99.90;;;;;;4998606;28;88460;-76
2023/04/30 00:07:31;;;;;;;13.60;10.85;;;8.30;99.90;;;;;;4998869;28;90929;-76
2023/04/30 00:09:58;;;;;;;15.00;10.35;;;8.30;99.90;;;;;;5031236;28;91607;-76
2023/04/30 00:12:25;;;;;;;11.27;10.18;;;8.30;99.90;;;;;;4999880;28;97639;-76
2023/04/30 00:14:52;;;;;;;16.77;11.45;;;8.20;99.90;;;;;;4998157;28;91153;-76
2023/04/30 00:17:18;;;;;;;15.90;10.95;;;8.20;99.90;;;;;;4981875;28;91221;-76
2023/04/30 00:19:45;;;;;;;14.82;10.40;;;8.20;99.90;;;;;;4998436;28;89760;-76
2023/04/30 00:22:12;;;;;;;14.70;9.77;;;8.20;99.90;;;;;;4999643;28;89573;-76
2023/04/30 00:24:39;;;;;;;14.18;10.77;;;8.20;99.90;;;;;;4998809;28;92023;-76
2023/04/30 00:27:06;;;;;;;12.82;10.38;;;8.10;99.90;;;;;;4999459;28;88398;-77
2023/04/30 00:29:33;;;;;;;16.52;10.02;;;8.10;99.90;;;;;;4998392;28;88467;-76
2023/04/30 00:32:00;;;;;;;19.40;10.70;;;8.10;99.90;;;;;;4999414;28;89389;-76
2023/04/30 00:34:27;;;;;;;14.88;10.85;;;8.00;99.90;;;;;;4998293;28;89301;-76
2023/04/30 00:36:55;;;;;;;16.58;11.38;;;8.00;99.90;;;;;;5013930;28;90202;-76
2023/04/30 00:39:21;;;;;;;13.65;10.82;;;7.90;99.90;;;;;;4999311;28;88599;-76
2023/04/30 00:41:48;;;;;;;16.98;10.85;;;7.90;99.90;;;;;;5031501;27;89583;-76
2023/04/30 00:44:15;;;;;;;15.90;11.20;;;7.80;99.90;;;;;;4997642;28;91816;-76
2023/04/30 00:46:42;;;;;;;17.02;11.20;;;7.80;99.90;;;;;;4981390;28;90026;-76
2023/04/30 00:49:09;;;;;;;14.57;10.90;;;7.80;99.90;;;;;;4999194;28;88883;-76
2023/04/30 00:51:40;;;;;;;17.60;11.85;;;7.80;99.90;;;;;;4997562;28;91926;-76
2023/04/30 00:54:08;;;;;;;16.33;10.02;;;7.80;99.90;;;;;;4997602;28;91932;-76
2023/04/30 00:56:35;;;;;;;13.07;10.13;;;7.70;99.90;;;;;;4980568;28;91661;-76
2023/04/30 00:59:02;;;;;;;18.00;11.70;;;7.70;99.90;;;;;;4997894;28;88947;-76
2023/04/30 01:01:29;;;;;;;18.67;12.13;;;7.60;99.90;;;;;;4999163;28;89286;-76
2023/04/30 01:03:56;;;;;;;14.05;11.18;;;7.60;99.90;;;;;;4997185;28;90231;-76
2023/04/30 01:06:25;;;;;;;16.10;11.43;;;7.60;99.90;;;;;;4998706;28;88557;-76
2023/04/30 01:08:53;;;;;;;16.58;10.98;;;7.60;99.90;;;;;;4998784;28;89757;-76
2023/04/30 01:11:32;;;;;;;16.70;11.02;;;7.50;99.90;;;;;;4997471;28;91893;-77
2023/04/30 01:14:08;;;;;;;15.10;10.02;;;7.50;99.90;;;;;;4997317;28;91188;-76
2023/04/30 01:16:57;;;;;;;13.05;10.18;;;7.40;99.90;;;;;;4996934;28;91468;-76
2023/04/30 01:19:42;;;;;;;11.65;9.77;;;7.40;99.90;;;;;;4980881;28;91562;-76
2023/04/30 01:22:26;;;;;;;16.85;10.27;;;7.40;99.90;;;;;;4997794;28;91347;-76
2023/04/30 01:25:18;;;;;;;16.03;10.17;;;7.30;99.90;;;;;;4998576;28;88470;-76
2023/04/30 01:28:18;;;;;;;17.05;11.38;;;7.30;99.90;;;;;;4997628;28;89450;-76
2023/04/30 01:30:46;;;;;;;17.38;11.77;;;7.30;99.90;;;;;;4996796;28;91164;-76
2023/04/30 01:33:13;;;;;;;16.98;11.80;;;7.20;99.90;;;;;;5013310;28;92141;-76
2023/04/30 01:36:19;;;;;;;18.02;11.88;;;7.20;99.90;;;;;;4996857;28;88895;-77
2023/04/30 01:39:08;;;;;;;18.63;11.40;;;7.20;99.90;;;;;;4997055;28;91338;-76
2023/04/30 01:42:17;;;;;;;16.50;12.18;;;7.10;99.90;;;;;;4996921;28;91487;-76
2023/04/30 01:45:18;;;;;;;16.05;10.63;;;7.20;99.90;;;;;;4996932;28;89299;-76
2023/04/30 01:48:10;;;;;;;13.50;10.50;;;7.10;99.90;;;;;;4996805;28;91503;-76
2023/04/30 01:50:47;;;;;;;13.77;10.07;;;7.10;99.90;;;;;;4997358;28;88872;-76
2023/04/30 01:53:22;;;;;;;16.20;10.60;;;7.00;99.90;;;;;;4998181;28;88780;-76
2023/04/30 01:55:56;;;;;;;15.00;10.82;;;7.00;99.90;;;;;;4998526;28;89451;-76
2023/04/30 01:58:24;;;;;;;15.02;10.90;;;7.00;99.90;;;;;;4980079;28;91548;-76
2023/04/30 02:00:52;;;;;;;15.15;10.30;;;7.00;99.90;;;;;;4996765;28;91251;-76
2023/04/30 02:03:19;;;;;;;13.77;10.13;;;7.00;99.90;;;;;;4996223;28;92473;-76
2023/04/30 02:05:46;;;;;;;14.57;9.98;;;7.00;99.90;;;;;;5030045;28;90845;-76
2023/04/30 02:08:13;;;;;;;15.65;10.57;;;7.00;99.90;;;;;;4995032;28;91632;-76
2023/04/30 02:10:40;;;;;;;14.77;10.57;;;6.90;99.90;;;;;;4996280;28;91068;-76
2023/04/30 02:13:07;;;;;;;13.18;9.88;;;6.90;99.90;;;;;;4996397;28;88601;-76
2023/04/30 02:15:34;;;;;;;16.25;12.30;;;6.90;99.90;;;;;;4997176;28;91434;-76
2023/04/30 02:18:01;;;;;;;13.98;11.35;;;6.90;99.90;;;;;;4996565;28;89193;-76
2023/04/30 02:20:28;;;;;;;15.68;11.48;;;6.90;99.90;;;;;;4996634;28;90528;-76
2023/04/30 02:22:55;;;;;;;12.50;10.52;;;6.90;99.90;;;;;;4997894;28;88851;-76
2023/04/30 02:25:22;;;;;;;11.50;9.40;;;6.80;99.90;;;;;;4995471;28;101162;-76
2023/04/30 02:27:50;;;;;;;14.13;9.63;;;6.80;99.90;;;;;;4996856;28;91519;-76
2023/04/30 02:30:18;;;;;;;13.23;10.68;;;6.80;99.90;;;;;;4996778;28;90954;-76
2023/04/30 02:32:46;;;;;;;15.82;11.65;;;6.80;99.90;;;;;;4997462;28;88851;-76
2023/04/30 02:35:14;;;;;;;14.10;10.93;;;6.80;99.90;;;;;;4995790;28;91982;-76
2023/04/30 02:37:40;;;;;;;15.52;11.55;;;6.70;99.90;;;;;;5012334;28;91549;-76
2023/04/30 02:40:08;;;;;;;17.63;12.20;;;6.70;99.90;;;;;;4995954;28;91324;-76
2023/04/30 02:42:35;;;;;;;17.85;11.70;;;6.70;99.90;;;;;;4979538;28;91269;-76
2023/04/30 02:45:02;;;;;;;13.13;10.65;;;6.70;99.90;;;;;;4996405;28;88505;-76
2023/04/30 02:47:29;;;;;;;14.40;10.75;;;6.70;99.90;;;;;;4995788;28;91434;-76
2023/04/30 02:49:56;;;;;;;16.17;9.98;;;6.70;99.90;;;;;;4997280;28;88477;-76
2023/04/30 02:52:25;;;;;;;15.43;10.35;;;6.70;99.90;;;;;;4979106;28;91969;-76
2023/04/30 02:54:51;;;;;;;13.40;10.25;;;6.60;99.90;;;;;;4997168;28;89434;-76
2023/04/30 02:57:18;;;;;;;12.73;10.43;;;6.60;99.90;;;;;;4979285;28;91806;-76
2023/04/30 02:59:45;;;;;;;12.10;10.15;;;6.60;99.90;;;;;;4995838;28;89579;-76
2023/04/30 03:02:13;;;;;;;13.82;10.40;;;6.60;99.90;;;;;;4979159;28;91207;-76
2023/04/30 03:04:40;;;;;;;18.45;11.55;;;6.50;99.90;;;;;;4995765;28;91640;-76
2023/04/30 03:07:07;;;;;;;14.70;10.93;;;6.50;99.90;;;;;;4978918;28;91322;-76
2023/04/30 03:09:34;;;;;;;16.10;11.73;;;6.50;99.90;;;;;;4995943;28;90854;-76
2023/04/30 03:12:01;;;;;;;13.93;11.27;;;6.50;99.90;;;;;;4979390;28;91550;-76
2023/04/30 03:14:29;;;;;;;15.65;10.38;;;6.50;99.90;;;;;;4979264;28;92093;-76
2023/04/30 03:16:56;;;;;;;15.85;11.48;;;6.50;99.90;;;;;;4995295;28;90361;-76
2023/04/30 03:19:24;;;;;;;12.15;10.15;;;6.50;99.90;;;;;;4978242;28;91027;-76
2023/04/30 03:21:51;;;;;;;14.55;11.80;;;6.40;99.90;;;;;;5012448;28;91302;-76
2023/04/30 03:24:18;;;;;;;18.05;12.40;;;6.40;99.90;;;;;;4995333;28;91746;-76
2023/04/30 03:26:46;;;;;;;17.90;12.40;;;6.40;99.90;;;;;;4997176;28;89046;-76
2023/04/30 03:29:13;;;;;;;18.38;12.35;;;6.40;99.90;;;;;;4996848;28;89096;-76
2023/04/30 03:31:40;;;;;;;20.27;13.20;;;6.40;99.90;;;;;;4996952;28;88941;-76
2023/04/30 03:34:07;;;;;;;21.98;12.95;;;6.40;99.90;;;;;;4995549;28;91978;-76
2023/04/30 03:36:34;;;;;;;19.38;12.23;;;6.40;99.90;;;;;;4994898;28;98368;-76
2023/04/30 03:39:03;;;;;;;15.85;11.13;;;6.40;99.90;;;;;;4995485;28;90803;-76
2023/04/30 03:41:30;;;;;;;16.95;12.07;;;6.40;99.90;;;;;;4994962;28;89613;-76
2023/04/30 03:43:57;;;;;;;14.45;10.93;;;6.40;99.90;;;;;;4995251;28;91970;-76
2023/04/30 03:46:25;;;;;;;17.80;12.23;;;6.40;99.90;;;;;;4995051;28;91731;-76
2023/04/30 03:48:52;;;;;;;16.13;11.50;;;6.40;99.90;;;;;;4995094;28;91208;-76
2023/04/30 03:51:20;;;;;;;15.20;11.63;;;6.40;99.90;;;;;;4978466;28;90923;-76
2023/04/30 03:53:47;;;;;;;19.30;11.80;;;6.40;99.90;;;;;;4995009;28;92418;-76
2023/04/30 03:56:14;;;;;;;16.50;11.43;;;6.40;99.90;;;;;;4996572;28;88931;-76
2023/04/30 03:58:41;;;;;;;16.65;10.65;;;6.40;99.90;;;;;;4995239;28;90949;-76
2023/04/30 04:01:08;;;;;;;15.90;10.90;;;6.50;99.90;;;;;;4994833;28;91158;-76
2023/04/30 04:03:35;;;;;;;13.88;10.70;;;6.50;99.90;;;;;;4994893;28;91674;-76
2023/04/30 04:06:04;;;;;;;15.60;10.50;;;6.50;99.90;;;;;;4996180;28;89141;-76
2023/04/30 04:08:31;;;;;;;14.00;10.70;;;6.50;99.90;;;;;;5010161;28;90963;-76
2023/04/30 04:10:58;;;;;;;15.00;10.35;;;6.50;99.90;;;;;;5028389;28;88865;-77
2023/04/30 04:13:25;;;;;;;17.58;10.82;;;6.50;99.90;;;;;;4994558;28;92117;-76
2023/04/30 04:15:52;;;;;;;18.35;10.52;;;6.50;99.90;;;;;;4995003;28;91345;-76
2023/04/30 04:18:20;;;;;;;14.55;10.10;;;6.60;99.90;;;;;;4994656;28;90540;-76
2023/04/30 04:20:47;;;;;;;13.05;9.48;;;6.60;99.90;;;;;;4996260;28;88846;-76
2023/04/30 04:23:15;;;;;;;12.73;9.43;;;6.70;99.90;;;;;;4979721;28;90657;-76
2023/04/30 04:25:43;;;;;;;13.48;9.70;;;6.70;99.90;;;;;;4978921;28;89081;-76
2023/04/30 04:28:10;;;;;;;13.85;8.93;;;6.80;99.90;;;;;;4979120;28;90827;-76
2023/04/30 04:30:39;;;;;;;18.48;9.93;;;6.90;99.90;;;;;;4979255;28;91777;-76
2023/04/30 04:33:07;;;;;;;12.48;9.45;;;7.00;99.90;;;;;;4998746;28;91027;-76
2023/04/30 04:35:34;;;;;;;14.27;9.30;;;7.00;99.90;;;;;;4998955;28;89109;-76
2023/04/30 04:38:01;;;;;;;15.93;9.23;;;7.10;99.90;;;;;;4998687;28;91101;-76
2023/04/30 04:40:29;;;;;;;14.15;9.80;;;7.30;99.90;;;;;;4998427;28;90952;-76
2023/04/30 04:42:57;;;;;;;7.95;6.82;;;7.40;99.90;;;;;;4998588;28;91112;-76
2023/04/30 04:45:24;;;;;;;10.23;7.15;;;7.70;99.90;;;;;;4982061;28;88406;-76
2023/04/30 04:47:52;;;;;;;9.52;6.88;;;8.10;99.90;;;;;;4966374;28;90995;-76
2023/04/30 04:50:19;;;;;;;8.15;6.00;;;8.40;99.90;;;;;;4981998;28;90211;-76
2023/04/30 04:52:47;;;;;;;8.02;6.00;;;8.80;99.90;;;;;;4998548;28;90913;-76
2023/04/30 04:55:14;;;;;;;9.88;6.13;;;9.00;99.90;;;;;;5014868;28;89266;-76
2023/04/30 04:57:41;;;;;;;7.50;5.95;;;9.30;99.90;;;;;;4999655;28;88269;-76
2023/04/30 05:00:10;;;;;;;8.48;6.07;;;9.50;99.90;;;;;;4998298;28;91617;-76
2023/04/30 05:02:37;;;;;;;8.80;5.80;;;9.70;99.90;;;;;;4999448;28;88561;-77
2023/04/30 05:05:05;;;;;;;10.30;5.53;;;9.90;99.90;;;;;;4998248;28;89071;-76
2023/04/30 05:07:33;;;;;;;10.93;5.85;;;10.00;99.90;;;;;;4998058;28;91174;-76
2023/04/30 05:10:01;;;;;;;7.57;5.30;;;10.20;99.90;;;;;;4997802;28;91122;-76
2023/04/30 05:12:29;;;;;;;6.90;5.30;;;10.40;99.90;;;;;;4998506;28;91409;-76
2023/04/30 05:14:56;;;;;;;8.23;5.10;;;10.70;99.90;;;;;;4998339;28;89046;-76
2023/04/30 05:17:23;;;;;;;6.95;4.97;;;11.10;99.90;;;;;;4998200;28;88713;-76
2023/04/30 05:19:51;;;;;;;8.18;5.32;;;11.50;99.90;;;;;;4998056;28;89467;-76
2023/04/30 05:22:18;;;;;;;5.53;4.68;;;11.90;99.90;;;;;;4999254;28;89430;-76
2023/04/30 05:24:45;;;;;;;6.95;5.15;;;12.40;99.90;;;;;;4997895;28;88024;-76
2023/04/30 05:27:12;;;;;;;12.73;5.38;;;12.90;99.90;;;;;;4999516;28;88302;-76
2023/04/30 05:29:39;;;;;;;7.90;4.50;;;13.50;99.90;;;;;;4999189;28;88791;-77
2023/04/30 05:32:07;;;;;;;7.65;4.57;;;14.10;99.90;;;;;;4997930;28;96993;-76
2023/04/30 05:34:34;;;;;;;7.90;4.10;;;14.50;99.90;;;;;;5014548;28;88074;-76
2023/04/30 05:37:02;;;;;;;7.93;4.00;;;14.90;99.90;;;;;;5014829;28;91136;-77
2023/04/30 05:39:29;;;;;;;8.57;3.63;;;15.30;99.90;;;;;;4999105;28;88015;-76
2023/04/30 05:41:56;;;;;;;8.15;3.88;;;15.50;99.90;;;;;;4999011;28;88498;-77
2023/04/30 05:44:23;;;;;;;6.85;4.15;;;15.50;99.60;;;;;;5014166;28;90403;-77
2023/04/30 05:46:50;;;;;;;9.43;3.40;;;15.80;99.40;;;;;;4999039;28;88489;-77
2023/04/30 05:49:17;;;;;;;7.90;3.97;;;16.20;98.60;;;;;;4999014;28;88878;-77
2023/04/30 05:51:44;;;;;;;10.45;3.65;;;16.70;97.60;;;;;;4998971;28;88523;-77
2023/04/30 05:54:11;;;;;;;5.63;3.30;;;17.10;96.60;;;;;;5014510;28;90885;-78
2023/04/30 05:56:38;;;;;;;6.28;3.40;;;16.90;95.70;;;;;;4997337;28;91128;-77
2023/04/30 05:59:05;;;;;;;7.88;3.60;;;16.70;96.10;;;;;;4999113;28;88821;-77
2023/04/30 06:01:32;;;;;;;8.73;3.55;;;16.50;96.10;;;;;;4997628;28;91150;-77
2023/04/30 06:04:00;;;;;;;8.18;3.00;;;16.30;96.30;;;;;;4997351;28;94944;-77
2023/04/30 06:06:27;;;;;;;6.75;3.17;;;16.10;96.20;;;;;;4998928;28;88457;-77
2023/04/30 06:08:54;;;;;;;7.30;3.15;;;16.10;96.20;;;;;;4980376;28;89493;-77
2023/04/30 06:11:21;;;;;;;6.50;3.47;;;16.00;96.00;;;;;;4980690;28;92036;-77
2023/04/30 06:13:48;;;;;;;7.50;3.30;;;15.80;95.80;;;;;;4980629;28;88420;-76
2023/04/30 06:16:15;;;;;;;8.00;3.08;;;15.60;96.00;;;;;;4998859;28;88293;-77
2023/04/30 06:18:43;;;;;;;10.18;3.42;;;15.30;96.00;;;;;;4998186;28;88145;-77
2023/04/30 06:21:10;;;;;;;7.30;3.83;;;15.00;96.40;;;;;;4997171;28;89878;-76
2023/04/30 06:23:37;;;;;;;10.57;4.25;;;14.80;96.70;;;;;;4998436;28;88002;-77
2023/04/30 06:26:04;;;;;;;6.63;3.40;;;14.60;97.10;;;;;;4998943;28;87427;-77
2023/04/30 06:28:31;;;;;;;6.28;3.63;;;14.30;97.00;;;;;;5013974;28;88746;-77
2023/04/30 06:30:58;;;;;;;5.47;3.28;;;13.90;97.40;;;;;;4979991;28;89682;-76
2023/04/30 06:33:25;;;;;;;7.53;3.60;;;13.70;98.10;;;;;;5013640;28;88795;-77
2023/04/30 06:35:54;;;;;;;9.95;3.55;;;13.30;98.60;;;;;;4980202;28;91727;-77
2023/04/30 06:38:21;;;;;;;5.63;3.88;;;13.30;98.90;;;;;;4980875;28;88731;-77
2023/04/30 06:40:48;;;;;;;6.38;3.38;;;13.50;98.90;;;;;;4998152;28;88494;-77
2023/04/30 06:43:16;;;;;;;8.25;3.80;;;13.60;98.80;;;;;;4998200;28;88013;-77
2023/04/30 06:45:43;;;;;;;7.57;3.47;;;13.80;98.80;;;;;;4997866;28;89410;-77
2023/04/30 06:48:10;;;;;;;8.80;3.15;;;14.20;98.10;;;;;;4997093;28;87953;-77
2023/04/30 06:50:43;;;;;;;10.88;3.80;;;14.70;97.40;;;;;;4997147;28;91004;-77
2023/04/30 06:53:11;;;;;;;11.07;3.75;;;14.90;96.80;;;;;;4997929;28;88407;-77
2023/04/30 06:55:38;;;;;;;7.43;3.40;;;14.90;96.60;;;;;;4996595;28;88409;-77
2023/04/30 06:58:27;;;;;;;9.75;3.70;;;15.00;96.50;;;;;;4997390;28;92174;-77
2023/04/30 07:00:54;;;;;;;7.22;3.20;;;15.20;95.90;;;;;;4997985;28;89306;-77
2023/04/30 07:03:21;;;;;;;6.07;2.75;;;15.00;96.40;;;;;;4996451;28;96417;-77
2023/04/30 07:05:50;;;;;;;5.45;2.90;;;15.00;96.40;;;;;;4980078;28;88510;-77
2023/04/30 07:08:17;;;;;;;7.57;3.83;;;15.10;96.00;;;;;;4996135;28;88384;-76
2023/04/30 07:10:44;;;;;;;6.57;2.95;;;15.10;95.90;;;;;;4979717;28;91016;-77
2023/04/30 07:13:11;;;;;;;6.72;3.20;;;15.30;95.80;;;;;;5013383;28;89847;-77
2023/04/30 07:15:38;;;;;;;6.63;3.47;;;15.70;95.50;;;;;;4998234;28;88397;-77
2023/04/30 07:18:05;;;;;;;6.97;3.03;;;16.20;95.30;;;;;;4997522;28;88847;-77
2023/04/30 07:20:32;;;;;;;10.70;3.92;;;16.80;94.70;;;;;;4997776;28;88458;-77
2023/04/30 07:22:59;;;;;;;7.68;3.08;;;17.40;93.80;;;;;;4996074;28;88672;-77
2023/04/30 07:25:26;;;;;;;6.03;2.95;;;17.50;92.80;;;;;;4997714;28;88406;-77
2023/04/30 07:27:54;;;;;;;7.65;3.28;;;17.40;92.80;;;;;;4997094;28;98371;-77
2023/04/30 07:30:21;;;;;;;6.70;2.88;;;17.50;92.60;;;;;;4996532;28;88515;-77
2023/04/30 07:32:50;;;;;;;4.85;3.00;;;17.70;92.60;;;;;;4997445;28;88078;-77
2023/04/30 07:35:17;;;;;;;6.88;2.90;;;18.10;91.60;;;;;;4979892;28;88445;-77
2023/04/30 07:37:45;;;;;;;7.68;3.00;;;18.30;90.20;;;;;;4997190;28;88928;-77
2023/04/30 07:40:12;;;;;;;5.95;3.00;;;18.50;90.50;;;;;;4996504;28;91058;-77
2023/04/30 07:42:41;;;;;;;8.45;2.80;;;18.60;90.10;;;;;;4996161;28;89532;-77
2023/04/30 07:45:08;;;;;;;5.85;2.80;;;18.30;90.00;;;;;;4995833;28;90754;-77
2023/04/30 07:47:35;;;;;;;5.95;3.05;;;18.40;90.10;;;;;;4997199;28;89427;-77
2023/04/30 07:50:02;;;;;;;10.73;3.40;;;18.40;90.10;;;;;;4995919;28;89888;-77
2023/04/30 07:52:29;;;;;;;6.45;2.80;;;18.40;89.60;;;;;;4997377;28;88049;-77
2023/04/30 07:54:56;;;;;;;8.95;3.70;;;18.40;89.30;;;;;;4995954;28;88519;-77
2023/04/30 07:57:25;;;;;;;7.40;3.22;;;18.10;89.40;;;;;;4997172;28;88934;-77
2023/04/30 07:59:53;;;;;;;7.72;3.22;;;17.80;89.70;;;;;;4996920;28;88499;-77
2023/04/30 08:02:20;;;;;;;6.15;2.42;;;17.60;90.30;;;;;;4995834;28;89060;-77
2023/04/30 08:04:48;;;;;;;5.22;2.47;;;17.50;90.20;;;;;;4995999;28;88538;-77
2023/04/30 08:07:15;;;;;;;5.18;2.42;;;17.40;90.20;;;;;;5000138;28;88688;-77
2023/04/30 08:09:42;;;;;;;7.10;2.50;;;17.70;89.90;;;;;;4998512;28;88852;-77
2023/04/30 08:12:10;;;;;;;8.68;2.90;;;17.80;89.70;;;;;;4982143;28;89448;-77
2023/04/30 08:14:37;;;;;;;10.15;3.10;;;17.80;89.10;;;;;;4999517;28;88240;-77
2023/04/30 08:17:04;;;;;;;7.32;3.00;;;17.80;88.80;;;;;;4999095;28;88106;-77
2023/04/30 08:19:31;;;;;;;6.60;2.63;;;17.70;89.20;;;;;;4998913;28;89552;-77
2023/04/30 08:21:59;;;;;;;6.35;2.72;;;17.60;89.10;;;;;;4998970;28;88463;-77
2023/04/30 08:24:26;;;;;;;7.18;2.67;;;17.70;88.40;;;;;;5000388;28;88030;-77
2023/04/30 08:26:53;;;;;;;5.15;2.78;;;17.80;88.60;;;;;;4998261;28;102917;-77
2023/04/30 08:29:20;;;;;;;5.10;2.47;;;17.90;88.90;;;;;;4999476;28;91097;-77
2023/04/30 08:31:47;;;;;;;6.47;2.20;;;17.90;88.00;;;;;;4982318;28;89532;-77
2023/04/30 08:34:14;;;;;;;7.10;2.95;;;17.90;87.40;;;;;;4998871;28;88434;-77
2023/04/30 08:36:41;;;;;;;6.63;2.67;;;18.00;87.70;;;;;;4998330;28;89578;-77
2023/04/30 08:39:08;;;;;;;5.90;2.20;;;18.30;87.70;;;;;;4998644;28;89381;-77
2023/04/30 08:41:35;;;;;;;6.35;2.30;;;18.30;86.50;;;;;;5000126;28;88072;-77
2023/04/30 08:44:02;;;;;;;6.55;2.67;;;18.30;85.80;;;;;;4998428;28;88473;-77
2023/04/30 08:46:34;;;;;;;6.50;2.80;;;18.50;86.20;;;;;;4999705;28;88770;-77
2023/04/30 08:49:01;;;;;;;5.15;2.63;;;18.80;85.80;;;;;;4999835;28;88713;-77
2023/04/30 08:51:31;;;;;;;6.68;2.58;;;18.90;85.40;;;;;;5000234;28;89013;-77
2023/04/30 08:53:58;;;;;;;8.60;2.38;;;19.20;83.50;;;;;;4999157;28;88408;-77
2023/04/30 08:56:25;;;;;;;7.28;2.30;;;18.90;82.10;;;;;;4998381;28;91174;-77
2023/04/30 08:58:52;;;;;;;6.15;2.80;;;18.90;82.00;;;;;;4999695;28;88548;-77
2023/04/30 09:01:20;;;;;;;7.25;2.67;;;18.70;82.20;;;;;;4999565;28;88704;-77
2023/04/30 09:03:47;;;;;;;6.93;2.70;;;18.40;83.40;;;;;;4981995;28;91390;-77
2023/04/30 09:06:18;;;;;;;4.75;2.33;;;18.20;84.20;;;;;;4997980;28;90538;-77
2023/04/30 09:08:49;;;;;;;7.18;3.00;;;17.90;85.10;;;;;;4998419;28;88733;-77
2023/04/30 09:11:29;;;;;;;6.15;2.67;;;17.70;86.00;;;;;;4998061;28;90627;-77
2023/04/30 09:13:58;;;;;;;7.28;2.85;;;17.50;85.90;;;;;;4999768;28;87888;-77
2023/04/30 09:16:28;;;;;;;8.00;2.45;;;17.30;86.30;;;;;;4997865;28;89004;-77
2023/04/30 09:18:56;;;;;;;8.07;2.72;;;17.00;86.50;;;;;;4999782;28;88943;-77
2023/04/30 09:21:34;;;;;;;5.13;2.85;;;16.70;87.30;;;;;;4999554;28;88041;-77
2023/04/30 09:24:03;;;;;;;6.78;2.67;;;16.70;88.00;;;;;;4999442;28;88441;-77
2023/04/30 09:26:37;;;;;;;5.43;3.30;;;16.60;88.50;;;;;;4997801;28;88766;-77
2023/04/30 09:29:09;;;;;;;7.82;3.22;;;16.70;87.90;;;;;;4999282;28;92509;-77
2023/04/30 09:31:37;;;;;;;10.60;3.13;;;16.80;88.30;;;;;;4999619;28;88017;-77
2023/04/30 09:34:05;;;;;;;6.32;2.60;;;17.10;86.80;;;;;;4997650;28;89698;-77
2023/04/30 09:36:32;;;;;;;5.97;2.47;;;17.20;86.10;;;;;;5014579;28;91301;-77
2023/04/30 09:39:18;;;;;;;5.22;3.00;;;17.40;86.60;;;;;;4997895;28;88731;-77
2023/04/30 09:41:45;;;;;;;8.02;3.00;;;17.60;85.10;;;;;;4998180;28;88106;-77
2023/04/30 09:44:29;;;;;;;7.00;2.90;;;17.50;85.70;;;;;;4997614;28;99815;-77
2023/04/30 09:46:57;;;;;;;5.85;2.83;;;17.90;85.00;;;;;;4997436;28;91731;-77
2023/04/30 09:49:25;;;;;;;4.82;2.50;;;18.20;83.90;;;;;;4997128;28;98574;-77
2023/04/30 09:52:00;;;;;;;6.47;2.53;;;18.50;81.90;;;;;;4998860;28;88753;-77
2023/04/30 09:54:31;;;;;;;6.00;2.70;;;18.60;81.10;;;;;;4999078;28;88274;-77
2023/04/30 09:57:00;;;;;;;4.97;2.72;;;18.70;80.80;;;;;;4999087;28;87965;-77
2023/04/30 09:59:34;;;;;;;8.75;2.88;;;18.90;81.10;;;;;;4997032;28;90094;-77
2023/04/30 10:02:04;;;;;;;7.03;2.95;;;19.00;81.00;;;;;;4997786;28;87984;-77
2023/04/30 10:04:36;;;;;;;6.57;3.30;;;19.10;80.50;;;;;;4997427;28;91473;-77
2023/04/30 10:07:09;;;;;;;5.85;2.95;;;19.40;79.80;;;;;;4998693;28;91836;-77
2023/04/30 10:09:54;;;;;;;4.43;2.78;;;19.40;79.20;;;;;;4996474;28;91476;-78
2023/04/30 10:12:29;;;;;;;6.47;2.55;;;19.30;78.80;;;;;;4998887;28;88057;-77
2023/04/30 10:15:19;;;;;;;6.18;2.50;;;19.10;78.60;;;;;;4998746;28;88421;-77
2023/04/30 10:17:56;;;;;;;7.10;3.45;;;19.20;79.80;;;;;;4997055;28;89613;-77
2023/04/30 10:20:25;;;;;;;8.90;3.75;;;19.50;78.60;;;;;;4996902;28;90390;-77
2023/04/30 10:22:53;;;;;;;4.57;2.72;;;19.50;79.20;;;;;;4998557;28;87942;-77
2023/04/30 10:25:22;;;;;;;5.15;2.90;;;19.50;79.50;;;;;;4997218;28;88679;-77
2023/04/30 10:27:50;;;;;;;5.32;2.70;;;19.50;78.70;;;;;;4997958;28;88904;-77
2023/04/30 10:30:17;;;;;;;5.85;2.60;;;19.00;78.20;;;;;;4996630;28;88668;-77
2023/04/30 10:33:02;;;;;;;4.90;2.78;;;18.60;80.60;;;;;;4980567;28;88057;-77
2023/04/30 10:35:39;;;;;;;4.82;2.70;;;18.60;80.00;;;;;;4998653;28;88376;-78
2023/04/30 10:38:17;;;;;;;3.72;2.83;;;18.40;79.00;;;;;;4998331;28;88881;-77
2023/04/30 10:40:47;;;;;;;7.05;3.25;;;18.60;78.70;;;;;;4998445;28;88536;-77
2023/04/30 10:43:18;;;;;;;6.72;3.15;;;18.60;79.10;;;;;;4996103;28;89738;-78
2023/04/30 10:45:45;;;;;;;6.70;3.13;;;18.60;80.00;;;;;;4998253;28;88103;-77
2023/04/30 10:48:15;;;;;;;6.20;2.53;;;18.50;80.80;;;;;;4996361;28;100827;-77
2023/04/30 10:50:45;;;;;;;8.07;3.40;;;18.30;79.90;;;;;;4996721;28;91640;-77
2023/04/30 10:53:16;;;;;;;5.47;3.42;;;18.10;80.70;;;;;;4998182;28;87923;-77
2023/04/30 10:55:53;;;;;;;6.03;2.85;;;17.90;81.20;;;;;;4996584;28;91041;-77
2023/04/30 10:58:30;;;;;;;5.25;2.95;;;18.00;81.40;;;;;;4997957;28;87973;-77
2023/04/30 11:01:10;;;;;;;4.93;2.83;;;17.90;81.80;;;;;;4998412;28;89536;-77
2023/04/30 11:03:41;;;;;;;8.32;3.30;;;17.90;81.70;;;;;;4996886;28;88144;-78
2023/04/30 11:06:14;;;;;;;6.25;3.13;;;17.80;81.30;;;;;;4996537;28;91267;-77
2023/04/30 11:08:45;;;;;;;8.27;3.03;;;17.80;82.70;;;;;;4997630;28;88685;-77
2023/04/30 11:11:19;;;;;;;4.22;2.90;;;17.70;81.80;;;;;;4995965;28;89357;-77
2023/04/30 11:13:57;;;;;;;7.50;2.70;;;17.70;81.70;;;;;;4998156;28;88020;-77
2023/04/30 11:16:33;;;;;;;8.27;3.22;;;17.50;81.50;;;;;;5029705;28;90345;-77
2023/04/30 11:19:10;;;;;;;4.22;2.60;;;17.50;81.90;;;;;;4996295;28;90355;-77
2023/04/30 11:22:00;;;;;;;5.40;2.60;;;17.40;81.80;;;;;;4996800;28;88524;-77
2023/04/30 11:24:58;;;;;;;2.72;2.17;;;17.40;81.80;;;;;;4996497;28;88027;-77
2023/04/30 11:27:26;;;;;;;4.78;2.83;;;17.30;82.30;;;;;;4998220;28;89016;-77
2023/04/30 11:29:55;;;;;;;4.88;2.70;;;17.20;82.20;;;;;;4997624;28;88062;-77
2023/04/30 11:32:25;;;;;;;3.90;2.67;;;17.30;82.70;;;;;;4979789;28;88718;-77
2023/04/30 11:34:53;;;;;;;6.45;2.45;;;17.40;83.70;;;;;;4997290;28;88653;-77
2023/04/30 11:37:34;;;;;;;3.38;2.42;;;17.40;84.00;;;;;;4995868;28;89027;-77
2023/04/30 11:40:04;;;;;;;4.70;2.80;;;17.40;82.90;;;;;;4998339;28;95423;-77
2023/04/30 11:42:33;;;;;;;4.03;2.53;;;17.30;82.90;;;;;;4999507;28;91103;-77
2023/04/30 11:45:08;;;;;;;6.07;2.50;;;17.30;83.30;;;;;;5000029;28;88486;-77
2023/04/30 11:47:44;;;;;;;3.75;2.50;;;17.20;83.50;;;;;;5016105;28;91035;-77
2023/04/30 11:50:28;;;;;;;4.93;3.38;;;17.20;85.00;;;;;;4999538;28;89326;-77
2023/04/30 11:52:57;;;;;;;3.63;2.80;;;17.20;83.80;;;;;;5001254;28;87589;-77
2023/04/30 11:55:25;;;;;;;5.72;2.65;;;17.20;84.30;;;;;;4999291;28;89481;-77
2023/04/30 11:57:54;;;;;;;5.93;3.10;;;17.40;84.80;;;;;;4998949;28;102696;-77
2023/04/30 12:00:27;;;;;;;5.28;3.17;;;17.40;84.60;;;;;;4998378;28;93090;-77
2023/04/30 12:02:55;;;;;;;4.38;3.45;;;17.40;84.00;;;;;;5000803;28;88198;-77
2023/04/30 12:05:25;;;;;;;5.22;2.78;;;17.30;83.80;;;;;;5000611;28;87958;-77
2023/04/30 12:07:56;;;;;;;6.22;3.75;;;17.30;84.40;;;;;;5000610;28;88697;-77
2023/04/30 12:10:24;;;;;;;3.75;2.88;;;17.30;84.70;;;;;;4998329;28;91311;-77
2023/04/30 12:12:53;;;;;;;3.88;3.00;;;17.30;84.40;;;;;;4998990;28;88073;-77
2023/04/30 12:15:25;;;;;;;4.40;3.25;;;17.30;84.40;;;;;;4982474;28;92520;-77
2023/04/30 12:17:56;;;;;;;5.32;3.15;;;17.30;84.80;;;;;;5001062;28;88379;-77
2023/04/30 12:20:29;;;;;;;4.13;3.15;;;17.30;85.30;;;;;;4998673;28;91643;-77
2023/04/30 12:22:57;;;;;;;6.13;3.00;;;17.30;84.60;;;;;;4982600;28;91256;-77
2023/04/30 12:25:27;;;;;;;5.50;2.92;;;17.30;84.50;;;;;;4999723;28;88755;-77
2023/04/30 12:27:57;;;;;;;4.63;3.38;;;17.30;85.00;;;;;;5000545;28;88391;-77
2023/04/30 12:30:25;;;;;;;4.72;3.10;;;17.40;85.00;;;;;;4998774;28;89631;-77
2023/04/30 12:32:56;;;;;;;5.03;3.42;;;17.50;84.50;;;;;;4998873;28;90428;-77
2023/04/30 12:35:26;;;;;;;5.65;3.40;;;17.50;85.00;;;;;;4982239;28;87970;-77
2023/04/30 12:38:04;;;;;;;4.57;3.17;;;17.60;85.20;;;;;;5015181;28;91696;-77
2023/04/30 12:40:31;;;;;;;4.03;2.95;;;17.70;85.20;;;;;;4996072;28;95756;-77
2023/04/30 12:43:03;;;;;;;7.47;3.88;;;17.60;85.00;;;;;;4998439;28;93063;-77
2023/04/30 12:45:51;;;;;;;4.47;3.42;;;17.70;86.00;;;;;;4997611;28;92473;-77
2023/04/30 12:48:24;;;;;;;6.15;3.30;;;17.70;84.20;;;;;;5013371;28;92510;-77
2023/04/30 12:51:00;;;;;;;3.25;2.80;;;17.70;84.10;;;;;;4996298;28;94757;-77
2023/04/30 12:53:27;;;;;;;4.68;3.38;;;17.70;84.70;;;;;;4997318;28;95277;-77
2023/04/30 12:56:08;;;;;;;4.00;3.20;;;17.70;84.80;;;;;;4997926;28;92478;-77